createdAt,value
2023-01-27T00:01:17.440Z,5.80
2023-01-27T00:03:46.134Z,5.80
2023-01-27T00:06:14.760Z,5.80
2023-01-27T00:08:43.303Z,5.70
2023-01-27T00:11:30.890Z,5.80
2023-01-27T00:13:59.368Z,5.80
2023-01-27T00:16:28.275Z,5.80
2023-01-27T00:18:56.961Z,5.80
2023-01-27T00:21:42.700Z,5.80
2023-01-27T00:24:31.279Z,5.80
2023-01-27T00:27:01.138Z,5.90
2023-01-27T00:29:29.612Z,5.90
2023-01-27T00:32:15.390Z,5.90
2023-01-27T00:34:43.774Z,5.90
2023-01-27T00:37:12.230Z,5.90
2023-01-27T00:39:40.894Z,5.90
2023-01-27T00:42:12.880Z,5.90
2023-01-27T00:45:02.097Z,5.90
2023-01-27T00:47:30.564Z,5.90
2023-01-27T00:49:59.031Z,5.90
2023-01-27T00:52:27.851Z,5.90
2023-01-27T00:54:56.572Z,5.90
2023-01-27T00:57:26.332Z,5.90
2023-01-27T00:59:54.740Z,5.90
2023-01-27T01:02:23.447Z,5.90
2023-01-27T01:04:52.390Z,5.90
2023-01-27T01:07:20.804Z,5.90
2023-01-27T01:09:49.281Z,5.90
2023-01-27T01:12:17.871Z,5.90
2023-01-27T01:14:47.680Z,5.90
2023-01-27T01:17:16.143Z,5.90
2023-01-27T01:19:44.540Z,5.90
2023-01-27T01:22:12.868Z,5.80
2023-01-27T01:24:42.851Z,5.90
2023-01-27T01:27:11.978Z,5.80
2023-01-27T01:29:40.576Z,5.80
2023-01-27T01:32:11.159Z,5.80
2023-01-27T01:34:40.140Z,5.80
2023-01-27T01:37:09.003Z,5.80
2023-01-27T01:39:37.568Z,5.80
2023-01-27T01:42:08.129Z,5.80
2023-01-27T01:44:37.328Z,5.80
2023-01-27T01:47:06.096Z,5.80
2023-01-27T01:49:40.221Z,5.80
2023-01-27T01:52:12.353Z,5.70
2023-01-27T01:54:44.311Z,5.70
2023-01-27T01:57:16.991Z,5.70
2023-01-27T01:59:50.703Z,5.70
2023-01-27T02:02:26.111Z,5.70
2023-01-27T02:05:02.103Z,5.70
2023-01-27T02:07:37.895Z,5.70
2023-01-27T02:10:07.127Z,5.70
2023-01-27T02:12:37.688Z,5.70
2023-01-27T02:15:10.634Z,5.70
2023-01-27T02:17:39.521Z,5.70
2023-01-27T02:20:23.391Z,5.70
2023-01-27T02:22:57.442Z,5.70
2023-01-27T02:25:32.226Z,5.70
2023-01-27T02:28:03.087Z,5.80
2023-01-27T02:30:31.939Z,5.70
2023-01-27T02:33:01.295Z,5.70
2023-01-27T02:35:34.970Z,5.70
2023-01-27T02:38:05.197Z,5.70
2023-01-27T02:40:34.910Z,5.70
2023-01-27T02:43:06.345Z,5.70
2023-01-27T02:45:34.952Z,5.70
2023-01-27T02:48:03.553Z,5.70
2023-01-27T02:50:33.209Z,5.70
2023-01-27T02:53:01.851Z,5.60
2023-01-27T02:55:30.741Z,5.60
2023-01-27T02:57:59.432Z,5.60
2023-01-27T03:00:58.967Z,5.60
2023-01-27T03:03:27.936Z,5.60
2023-01-27T03:05:56.437Z,5.60
2023-01-27T03:08:25.072Z,5.60
2023-01-27T03:10:55.787Z,5.60
2023-01-27T03:13:25.444Z,5.70
2023-01-27T03:16:14.515Z,5.70
2023-01-27T03:18:49.801Z,5.70
2023-01-27T03:21:20.165Z,5.70
2023-01-27T03:23:49.481Z,5.70
2023-01-27T03:26:23.087Z,5.70
2023-01-27T03:29:10.058Z,5.70
2023-01-27T03:31:41.979Z,5.70
2023-01-27T03:34:13.261Z,5.70
2023-01-27T03:37:04.230Z,5.70
2023-01-27T03:39:50.452Z,5.70
2023-01-27T03:42:36.575Z,5.70
2023-01-27T03:45:23.182Z,5.70
2023-01-27T03:47:52.678Z,5.70
2023-01-27T03:50:31.239Z,5.70
2023-01-27T03:53:04.263Z,5.70
2023-01-27T03:55:33.993Z,5.70
2023-01-27T03:58:14.814Z,5.70
2023-01-27T04:00:43.535Z,5.70
2023-01-27T04:03:29.811Z,5.70
2023-01-27T04:06:21.124Z,5.70
2023-01-27T04:08:49.582Z,5.70
2023-01-27T04:11:35.791Z,5.70
2023-01-27T04:14:05.615Z,5.60
2023-01-27T04:16:36.791Z,5.60
2023-01-27T04:19:07.295Z,5.70
2023-01-27T04:21:37.748Z,5.60
2023-01-27T04:24:08.798Z,5.60
2023-01-27T04:26:38.758Z,5.60
2023-01-27T04:29:07.595Z,5.60
2023-01-27T04:31:36.476Z,5.50
2023-01-27T04:34:05.068Z,5.60
2023-01-27T04:36:35.735Z,5.50
2023-01-27T04:39:05.562Z,5.40
2023-01-27T04:41:35.785Z,5.40
2023-01-27T04:44:05.301Z,5.40
2023-01-27T04:46:34.863Z,5.30
2023-01-27T04:49:03.637Z,5.20
2023-01-27T04:51:33.022Z,5.20
2023-01-27T04:54:04.970Z,5.10
2023-01-27T04:56:37.221Z,5.10
2023-01-27T04:59:12.382Z,5.00
2023-01-27T05:01:40.986Z,5.00
2023-01-27T05:04:09.657Z,5.00
2023-01-27T05:06:38.466Z,5.00
2023-01-27T05:09:09.068Z,4.90
2023-01-27T05:11:39.295Z,5.00
2023-01-27T05:14:08.354Z,5.00
2023-01-27T05:16:39.263Z,5.00
2023-01-27T05:19:08.401Z,5.00
2023-01-27T05:21:39.823Z,5.00
2023-01-27T05:24:08.602Z,4.90
2023-01-27T05:26:38.413Z,4.90
2023-01-27T05:29:07.293Z,4.90
2023-01-27T05:31:35.975Z,4.80
2023-01-27T05:34:04.519Z,4.80
2023-01-27T05:36:33.342Z,4.80
2023-01-27T05:39:01.916Z,4.70
2023-01-27T05:41:32.144Z,4.70
2023-01-27T05:44:01.988Z,4.70
2023-01-27T05:46:32.392Z,4.70
2023-01-27T05:49:02.632Z,4.70
2023-01-27T05:51:33.607Z,4.70
2023-01-27T05:54:03.189Z,4.70
2023-01-27T05:56:32.049Z,4.70
2023-01-27T05:59:02.075Z,4.70
2023-01-27T06:01:32.835Z,4.60
2023-01-27T06:04:02.021Z,4.60
2023-01-27T06:06:31.866Z,4.60
2023-01-27T06:09:00.916Z,4.60
2023-01-27T06:11:29.469Z,4.60
2023-01-27T06:13:58.186Z,4.50
2023-01-27T06:16:28.106Z,4.50
2023-01-27T06:18:56.919Z,4.50
2023-01-27T06:21:25.383Z,4.50
2023-01-27T06:23:54.536Z,4.50
2023-01-27T06:26:22.918Z,4.40
2023-01-27T06:28:51.391Z,4.40
2023-01-27T06:31:22.725Z,4.40
2023-01-27T06:33:53.193Z,4.40
2023-01-27T06:36:22.892Z,4.40
2023-01-27T06:38:51.682Z,4.40
2023-01-27T06:41:20.998Z,4.40
2023-01-27T06:43:49.542Z,4.40
2023-01-27T22:30:39.785Z,3.40
2023-01-27T22:33:08.299Z,3.30
2023-01-27T22:35:36.970Z,3.30
2023-01-27T22:38:05.380Z,3.20
2023-01-27T22:40:34.477Z,3.20
2023-01-27T22:43:09.229Z,3.20
2023-01-27T22:45:40.941Z,3.10
2023-01-27T22:48:09.774Z,3.00
2023-01-27T22:50:40.590Z,3.00
2023-01-27T22:53:09.088Z,3.00
2023-01-27T22:55:37.494Z,2.90
2023-01-27T22:58:05.844Z,2.90
2023-01-27T23:00:35.170Z,2.80
2023-01-27T23:03:05.305Z,2.80
2023-01-27T23:05:35.662Z,2.80
2023-01-27T23:08:06.073Z,2.80
2023-01-27T23:10:35.445Z,2.80
2023-01-27T23:13:06.910Z,2.70
2023-01-27T23:15:35.715Z,2.70
2023-01-27T23:18:11.257Z,2.70
2023-01-27T23:20:40.252Z,2.70
2023-01-27T23:23:09.620Z,2.70
2023-01-27T23:25:44.042Z,2.70
2023-01-27T23:28:13.475Z,2.80
2023-01-27T23:30:44.452Z,2.80
2023-01-27T23:33:15.599Z,2.80
2023-01-27T23:35:44.336Z,2.90
2023-01-27T23:38:30.326Z,2.90
2023-01-27T23:41:06.613Z,2.90
2023-01-27T23:43:35.939Z,2.90
2023-01-27T23:46:07.214Z,2.90
2023-01-27T23:48:37.046Z,3.00
2023-01-27T23:51:09.987Z,3.00
2023-01-27T23:53:38.417Z,3.00
2023-01-27T23:56:08.003Z,3.00
2023-01-27T23:58:36.386Z,3.10
